createdAt,value
2019-05-02T00:01:19.176Z,4.70
2019-05-02T00:03:48.418Z,4.37
2019-05-02T00:06:17.695Z,4.30
2019-05-02T00:08:47.436Z,3.80
2019-05-02T00:11:16.909Z,4.70
2019-05-02T00:13:46.182Z,3.83
2019-05-02T00:16:15.832Z,4.13
2019-05-02T00:18:45.282Z,3.43
2019-05-02T00:21:14.611Z,3.13
2019-05-02T00:23:43.847Z,3.33
2019-05-02T00:26:13.087Z,3.67
2019-05-02T00:28:43.025Z,4.17
2019-05-02T00:31:13.313Z,4.07
2019-05-02T00:33:42.584Z,4.50
2019-05-02T00:36:11.877Z,4.50
2019-05-02T00:38:41.481Z,6.90
2019-05-02T00:41:10.745Z,5.87
2019-05-02T00:43:39.993Z,5.70
2019-05-02T00:46:09.282Z,6.87
2019-05-02T00:48:45.966Z,5.77
2019-05-02T00:51:15.582Z,5.97
2019-05-02T00:53:48.375Z,6.13
2019-05-02T00:56:15.725Z,5.50
2019-05-02T00:58:45.125Z,5.50
2019-05-02T01:01:39.218Z,5.47
2019-05-02T01:04:14.884Z,4.70
2019-05-02T01:06:44.787Z,4.40
2019-05-02T01:09:15.558Z,3.80
2019-05-02T01:11:44.742Z,3.30
2019-05-02T01:14:14.050Z,4.33
2019-05-02T01:16:43.286Z,3.30
2019-05-02T01:19:16.064Z,3.30
2019-05-02T01:21:43.661Z,3.60
2019-05-02T01:24:12.981Z,3.67
2019-05-02T01:26:49.002Z,3.17
2019-05-02T01:29:36.396Z,4.40
2019-05-02T01:32:25.145Z,3.13
2019-05-02T01:35:03.967Z,3.70
2019-05-02T01:37:54.847Z,3.50
2019-05-02T01:40:23.178Z,3.30
2019-05-02T01:42:52.433Z,4.33
2019-05-02T01:45:21.695Z,3.73
2019-05-02T01:47:50.930Z,3.93
2019-05-02T01:50:20.105Z,3.03
2019-05-02T01:52:49.454Z,4.23
2019-05-02T01:55:21.120Z,3.60
2019-05-02T01:57:49.571Z,3.33
2019-05-02T02:00:18.993Z,3.43
2019-05-02T02:02:48.255Z,3.53
2019-05-02T02:05:17.514Z,4.30
2019-05-02T02:07:50.779Z,3.70
2019-05-02T02:10:19.791Z,3.50
2019-05-02T02:13:02.680Z,5.10
2019-05-02T02:15:19.906Z,3.80
2019-05-02T02:17:51.474Z,3.47
2019-05-02T02:20:21.688Z,3.87
2019-05-02T02:23:19.122Z,3.60
2019-05-02T02:25:55.550Z,3.73
2019-05-02T02:28:24.986Z,2.70
2019-05-02T02:30:58.083Z,4.10
2019-05-02T02:33:25.122Z,3.60
2019-05-02T02:35:54.892Z,3.37
2019-05-02T02:38:26.794Z,3.40
2019-05-02T02:40:55.110Z,4.43
2019-05-02T02:43:34.189Z,5.73
2019-05-02T02:46:08.164Z,8.90
2019-05-02T02:48:40.686Z,10.33
2019-05-02T02:51:09.031Z,7.47
2019-05-02T02:53:38.585Z,4.20
2019-05-02T02:56:09.709Z,3.53
2019-05-02T02:58:45.510Z,4.30
2019-05-02T03:01:10.060Z,3.47
2019-05-02T03:03:39.407Z,3.93
2019-05-02T03:06:08.722Z,3.80
2019-05-02T03:08:46.105Z,3.50
2019-05-02T03:11:10.773Z,4.07
2019-05-02T03:13:53.773Z,4.33
2019-05-02T03:16:22.875Z,3.40
2019-05-02T03:18:52.138Z,4.00
2019-05-02T03:21:22.505Z,3.70
2019-05-02T03:24:02.282Z,3.70
2019-05-02T03:26:23.414Z,3.40
2019-05-02T03:28:58.444Z,4.22
2019-05-02T03:31:29.101Z,5.27
2019-05-02T03:34:00.256Z,4.53
2019-05-02T03:36:30.548Z,4.40
2019-05-02T03:38:56.688Z,4.63
2019-05-02T03:41:25.861Z,3.83
2019-05-02T03:44:09.779Z,3.93
2019-05-02T03:46:26.167Z,4.00
2019-05-02T03:49:05.743Z,4.10
2019-05-02T03:51:27.050Z,3.80
2019-05-02T03:54:05.756Z,4.23
2019-05-02T03:56:27.310Z,4.20
2019-05-02T03:58:58.159Z,4.60
2019-05-02T04:01:27.820Z,4.87
2019-05-02T04:03:57.195Z,5.30
2019-05-02T04:06:26.677Z,3.60
2019-05-02T04:08:59.937Z,3.93
2019-05-02T04:11:37.878Z,3.37
2019-05-02T04:13:58.706Z,4.80
2019-05-02T04:16:30.207Z,3.47
2019-05-02T04:19:04.939Z,3.70
2019-05-02T04:21:35.254Z,4.47
2019-05-02T04:24:12.964Z,4.97
2019-05-02T04:26:35.994Z,4.87
2019-05-02T04:29:05.265Z,3.90
2019-05-02T04:31:34.582Z,3.77
2019-05-02T04:34:14.022Z,3.37
2019-05-02T04:36:34.990Z,3.97
2019-05-02T04:39:11.633Z,3.70
2019-05-02T04:41:39.229Z,3.10
2019-05-02T04:44:09.057Z,3.53
2019-05-02T04:46:38.840Z,3.57
2019-05-02T04:49:09.144Z,3.47
2019-05-02T04:51:38.700Z,4.27
2019-05-02T04:54:09.223Z,4.20
2019-05-02T04:56:42.270Z,4.03
2019-05-02T04:59:18.157Z,3.40
2019-05-02T05:01:49.111Z,3.87
2019-05-02T05:04:11.623Z,2.90
2019-05-02T05:06:46.670Z,3.87
2019-05-02T05:09:14.841Z,2.97
2019-05-02T05:11:42.836Z,4.30
2019-05-02T05:14:12.006Z,4.00
2019-05-02T05:16:45.363Z,4.00
2019-05-02T05:19:12.357Z,3.93
2019-05-02T05:21:41.623Z,4.13
2019-05-02T05:24:32.696Z,4.77
2019-05-02T05:27:00.832Z,3.47
2019-05-02T05:29:30.127Z,4.60
2019-05-02T05:32:05.232Z,3.80
2019-05-02T05:34:32.620Z,18.80
2019-05-02T05:37:03.668Z,10.63
2019-05-02T05:39:32.303Z,4.70
2019-05-02T05:42:01.491Z,6.03
2019-05-02T05:44:32.632Z,3.83
2019-05-02T05:47:01.747Z,4.93
2019-05-02T05:49:31.192Z,3.80
2019-05-02T05:52:03.710Z,3.70
2019-05-02T05:54:32.983Z,3.63
2019-05-02T05:57:02.537Z,3.77
2019-05-02T05:59:32.260Z,3.73
2019-05-02T06:02:05.537Z,3.63
2019-05-02T06:04:33.285Z,3.17
2019-05-02T06:07:03.329Z,3.43
2019-05-02T06:09:32.685Z,3.47
2019-05-02T06:12:02.147Z,3.63
2019-05-02T06:14:34.242Z,3.60
2019-05-02T06:17:02.608Z,3.43
2019-05-02T06:19:32.286Z,3.53
2019-05-02T06:22:01.560Z,3.60
2019-05-02T06:24:33.735Z,3.70
2019-05-02T06:27:02.077Z,3.70
2019-05-02T06:29:31.258Z,2.87
2019-05-02T06:32:02.650Z,3.30
2019-05-02T06:34:31.929Z,2.77
2019-05-02T06:37:02.173Z,3.27
2019-05-02T06:39:32.056Z,3.50
2019-05-02T06:42:01.531Z,2.97
2019-05-02T06:44:30.806Z,2.70
2019-05-02T06:47:04.221Z,2.60
2019-05-02T06:49:31.193Z,3.90
2019-05-02T06:52:00.465Z,3.70
2019-05-02T06:54:29.717Z,3.80
2019-05-02T06:56:59.179Z,3.73
2019-05-02T06:59:28.507Z,2.80
2019-05-02T07:01:58.752Z,3.30
2019-05-02T07:04:28.126Z,2.93
2019-05-02T07:06:59.983Z,3.60
2019-05-02T07:09:40.557Z,3.43
2019-05-02T07:12:01.598Z,3.97
2019-05-02T07:14:31.122Z,8.70
2019-05-02T07:17:11.061Z,2.80
2019-05-02T07:19:43.768Z,3.50
2019-05-02T07:22:13.053Z,4.70
2019-05-02T07:24:42.323Z,4.40
2019-05-02T07:27:11.629Z,4.67
2019-05-02T07:29:40.882Z,4.70
2019-05-02T07:32:10.256Z,3.60
2019-05-02T07:34:44.128Z,3.10
2019-05-02T07:37:12.649Z,3.90
2019-05-02T07:39:42.275Z,3.73
2019-05-02T07:42:11.509Z,3.40
2019-05-02T07:44:40.871Z,4.17
2019-05-02T07:47:10.153Z,3.97
2019-05-02T07:49:39.397Z,3.10
2019-05-02T07:52:08.805Z,3.93
2019-05-02T07:54:38.081Z,3.30
2019-05-02T07:57:07.273Z,3.40
2019-05-02T07:59:36.583Z,3.60
2019-05-02T08:02:05.757Z,4.50
2019-05-02T08:04:35.009Z,4.50
2019-05-02T08:07:04.522Z,3.13
2019-05-02T08:09:33.797Z,3.20
2019-05-02T08:12:03.582Z,4.50
2019-05-02T08:14:34.651Z,4.60
2019-05-02T08:17:05.798Z,4.30
2019-05-02T08:19:37.630Z,4.67
2019-05-02T08:22:13.172Z,4.57
2019-05-02T08:24:37.891Z,3.93
2019-05-02T08:27:38.867Z,4.20
2019-05-02T08:30:11.179Z,4.63
2019-05-02T08:32:40.474Z,3.60
2019-05-02T08:35:10.181Z,4.53
2019-05-02T08:37:41.068Z,3.60
2019-05-02T08:40:12.023Z,3.87
2019-05-02T08:42:41.424Z,4.03
2019-05-02T08:45:10.824Z,3.83
2019-05-02T08:47:40.779Z,3.90
2019-05-02T08:50:10.246Z,4.40
2019-05-02T08:52:42.227Z,4.30
2019-05-02T08:55:11.048Z,4.63
2019-05-02T08:57:40.425Z,3.90
2019-05-02T09:00:11.795Z,4.70
2019-05-02T09:02:42.141Z,3.87
2019-05-02T09:05:11.706Z,4.13
2019-05-02T09:07:42.847Z,4.73
2019-05-02T09:10:12.479Z,4.17
2019-05-02T09:12:45.515Z,4.23
2019-05-02T09:15:15.207Z,4.10
2019-05-02T09:17:51.653Z,4.67
2019-05-02T09:20:20.622Z,4.07
2019-05-02T09:22:52.247Z,4.07
2019-05-02T09:25:21.974Z,4.40
2019-05-02T09:27:52.668Z,4.10
2019-05-02T09:30:25.720Z,3.70
2019-05-02T09:32:57.184Z,3.00
2019-05-02T09:35:24.221Z,4.30
2019-05-02T09:37:53.430Z,4.17
2019-05-02T09:40:22.622Z,4.50
2019-05-02T09:42:53.467Z,3.40
2019-05-02T09:45:35.456Z,5.37
2019-05-02T09:48:05.165Z,3.70
2019-05-02T09:50:32.183Z,3.77
2019-05-02T09:53:01.923Z,4.30
2019-05-02T09:55:31.849Z,4.10
2019-05-02T09:58:02.651Z,4.30
2019-05-02T10:00:52.510Z,4.50
2019-05-02T10:03:22.709Z,4.50
2019-05-02T10:05:52.617Z,4.20
2019-05-02T10:08:22.959Z,3.53
2019-05-02T10:10:52.492Z,4.57
2019-05-02T10:13:22.857Z,4.83
2019-05-02T10:15:52.743Z,4.27
2019-05-02T10:18:28.632Z,4.03
2019-05-02T10:20:53.157Z,4.37
2019-05-02T10:23:23.468Z,4.53
2019-05-02T10:25:52.961Z,4.87
2019-05-02T10:28:22.859Z,4.30
2019-05-02T10:30:56.448Z,3.90
2019-05-02T10:33:23.294Z,3.83
2019-05-02T10:35:52.742Z,4.00
2019-05-02T10:38:22.765Z,6.87
2019-05-02T10:40:54.798Z,3.50
2019-05-02T10:43:23.348Z,3.70
2019-05-02T10:46:01.817Z,2.40
2019-05-02T10:48:33.023Z,3.43
2019-05-02T10:51:31.679Z,3.40
2019-05-02T10:54:02.248Z,3.20
2019-05-02T10:56:32.426Z,3.27
2019-05-02T10:59:02.268Z,3.10
2019-05-02T11:01:35.887Z,2.60
2019-05-02T11:04:06.849Z,3.07
2019-05-02T11:06:37.193Z,3.60
2019-05-02T11:09:12.041Z,3.43
2019-05-02T11:11:42.528Z,2.97
2019-05-02T11:14:22.543Z,2.70
2019-05-02T11:17:13.891Z,3.80
2019-05-02T11:20:01.853Z,2.93
2019-05-02T11:22:32.125Z,2.90
2019-05-02T11:25:02.064Z,2.63
2019-05-02T11:27:32.895Z,2.23
2019-05-02T11:30:02.845Z,2.70
2019-05-02T11:32:32.671Z,2.33
2019-05-02T11:35:03.017Z,2.43
2019-05-02T11:37:32.931Z,2.70
2019-05-02T11:40:06.064Z,2.43
2019-05-02T11:42:33.215Z,3.57
2019-05-02T11:45:02.810Z,2.30
2019-05-02T11:47:32.857Z,3.10
2019-05-02T11:50:02.574Z,2.90
2019-05-02T11:52:36.189Z,2.47
2019-05-02T11:55:02.864Z,3.70
2019-05-02T11:57:33.175Z,3.20
2019-05-02T12:00:04.941Z,3.30
2019-05-02T12:02:58.154Z,2.73
2019-05-02T12:05:31.789Z,3.00
2019-05-02T12:08:07.812Z,2.73
2019-05-02T12:10:36.437Z,2.57
2019-05-02T12:13:06.587Z,2.80
2019-05-02T12:15:34.334Z,3.27
2019-05-02T12:18:03.621Z,2.27
2019-05-02T12:20:36.633Z,2.83
2019-05-02T12:23:04.063Z,2.50
2019-05-02T12:25:33.402Z,2.60
2019-05-02T12:28:02.692Z,3.00
2019-05-02T12:30:36.038Z,3.00
2019-05-02T12:33:02.938Z,3.00
2019-05-02T12:35:32.549Z,2.63
2019-05-02T12:38:02.726Z,3.30
2019-05-02T12:40:32.540Z,3.40
2019-05-02T12:43:02.513Z,2.73
2019-05-02T12:45:33.558Z,2.90
2019-05-02T12:48:02.970Z,3.10
2019-05-02T12:50:32.435Z,3.93
2019-05-02T12:53:02.963Z,3.10
2019-05-02T12:55:32.653Z,2.60
2019-05-02T12:58:03.151Z,2.57
2019-05-02T13:00:32.497Z,2.43
2019-05-02T13:03:12.629Z,3.10
2019-05-02T13:05:42.620Z,3.70
2019-05-02T13:08:12.424Z,2.63
2019-05-02T13:11:02.076Z,2.57
2019-05-02T13:13:32.612Z,2.17
2019-05-02T13:16:03.851Z,2.70
2019-05-02T13:18:37.106Z,2.73
2019-05-02T13:21:07.993Z,3.00
2019-05-02T13:23:45.172Z,2.80
2019-05-02T13:26:19.721Z,3.17
2019-05-02T13:28:45.694Z,2.40
2019-05-02T13:31:32.478Z,2.73
2019-05-02T13:34:14.831Z,3.50
2019-05-02T13:36:47.346Z,2.10
2019-05-02T13:39:42.816Z,2.80
2019-05-02T13:42:12.651Z,2.80
2019-05-02T13:44:48.944Z,3.00
2019-05-02T13:47:21.845Z,2.93
2019-05-02T13:49:54.762Z,3.07
2019-05-02T13:52:22.696Z,3.00
2019-05-02T13:54:52.302Z,2.63
2019-05-02T13:57:21.951Z,2.73
2019-05-02T13:59:52.522Z,2.53
2019-05-02T14:02:47.154Z,3.10
2019-05-02T14:05:16.951Z,2.43
2019-05-02T14:07:55.568Z,2.90
2019-05-02T14:10:25.723Z,3.00
2019-05-02T14:12:59.453Z,2.80
2019-05-02T14:15:33.636Z,3.50
2019-05-02T14:18:02.902Z,2.83
2019-05-02T14:20:33.031Z,2.80
2019-05-02T14:23:02.689Z,2.70
2019-05-02T14:25:32.290Z,3.03
2019-05-02T14:28:02.895Z,2.40
2019-05-02T14:30:39.935Z,2.37
2019-05-02T14:33:08.003Z,2.40
2019-05-02T14:35:37.742Z,2.53
2019-05-02T14:38:12.863Z,3.00
2019-05-02T14:40:59.253Z,3.00
2019-05-02T14:43:48.031Z,2.60
2019-05-02T14:46:18.008Z,2.70
2019-05-02T14:48:47.614Z,2.50
2019-05-02T14:51:25.533Z,2.57
2019-05-02T14:53:48.396Z,3.10
2019-05-02T14:56:37.687Z,2.60
2019-05-02T14:59:09.137Z,2.30
2019-05-02T15:01:39.256Z,3.60
2019-05-02T15:04:08.542Z,2.90
2019-05-02T15:06:38.428Z,2.27
2019-05-02T15:09:11.921Z,2.30
2019-05-02T15:11:58.322Z,2.20
2019-05-02T15:14:32.962Z,2.50
2019-05-02T15:17:03.215Z,2.40
2019-05-02T15:19:33.089Z,2.47
2019-05-02T15:22:02.551Z,2.30
2019-05-02T15:24:37.322Z,2.40
2019-05-02T15:27:10.978Z,2.10
2019-05-02T15:29:34.019Z,3.00
2019-05-02T15:32:22.240Z,2.53
2019-05-02T15:35:07.141Z,1.87
2019-05-02T15:37:36.353Z,1.83
2019-05-02T15:42:37.107Z,1.83
2019-05-02T15:45:06.960Z,3.10
2019-05-02T15:47:37.169Z,2.63
2019-05-02T15:50:07.330Z,2.50
2019-05-02T15:52:38.475Z,2.40
2019-05-02T15:55:08.429Z,2.57
2019-05-02T15:57:42.834Z,2.07
2019-05-02T16:00:14.700Z,2.00
2019-05-02T16:02:42.050Z,1.90
2019-05-02T16:05:11.866Z,2.20
2019-05-02T16:07:43.396Z,2.40
2019-05-02T16:10:14.009Z,1.87
2019-05-02T16:12:44.901Z,2.57
2019-05-02T16:15:21.375Z,1.97
2019-05-02T16:17:45.833Z,1.83
2019-05-02T16:20:20.939Z,2.13
2019-05-02T16:22:52.321Z,3.30
2019-05-02T16:25:24.430Z,1.63
2019-05-02T16:27:52.936Z,1.60
2019-05-02T16:30:23.416Z,2.30
2019-05-02T16:32:55.244Z,2.57
2019-05-02T16:35:25.443Z,2.00
2019-05-02T16:37:56.175Z,2.20
2019-05-02T16:40:29.925Z,3.23
2019-05-02T16:42:57.362Z,3.17
2019-05-02T16:45:26.735Z,4.13
2019-05-02T16:48:00.616Z,2.23
2019-05-02T16:50:31.847Z,2.00
2019-05-02T16:52:58.384Z,2.10
2019-05-02T16:55:27.767Z,1.80
2019-05-02T16:58:04.786Z,3.00
2019-05-02T17:00:28.816Z,1.97
2019-05-02T17:02:58.064Z,2.27
2019-05-02T17:05:27.471Z,5.80
2019-05-02T17:08:19.868Z,2.03
2019-05-02T17:10:59.608Z,2.20
2019-05-02T17:13:34.214Z,4.17
2019-05-02T17:16:05.880Z,2.83
2019-05-02T17:18:32.571Z,2.97
2019-05-02T17:21:02.016Z,3.17
2019-05-02T17:23:32.883Z,3.93
2019-05-02T17:26:02.224Z,2.20
2019-05-02T17:28:31.824Z,2.33
2019-05-02T17:31:01.253Z,1.57
2019-05-02T17:33:32.298Z,5.70
2019-05-02T17:36:02.143Z,5.93
2019-05-02T17:38:31.594Z,3.03
2019-05-02T17:41:04.714Z,2.80
2019-05-02T17:43:32.921Z,1.90
2019-05-02T17:46:04.588Z,1.63
2019-05-02T17:48:34.744Z,2.20
2019-05-02T17:51:28.340Z,1.80
2019-05-02T17:53:55.258Z,2.67
2019-05-02T17:56:25.144Z,2.10
2019-05-02T17:58:58.333Z,2.00
2019-05-02T18:01:35.006Z,3.47
2019-05-02T18:04:06.741Z,2.20
2019-05-02T18:06:35.700Z,2.00
2019-05-02T18:09:07.459Z,1.80
2019-05-02T18:11:37.908Z,2.10
2019-05-02T18:14:18.426Z,2.23
2019-05-02T18:16:39.381Z,1.70
2019-05-02T18:19:08.675Z,1.93
2019-05-02T18:21:38.170Z,1.67
2019-05-02T18:24:07.457Z,1.80
2019-05-02T18:26:36.725Z,2.23
2019-05-02T18:29:06.945Z,2.43
2019-05-02T18:31:40.064Z,2.00
2019-05-02T18:34:07.345Z,2.17
2019-05-02T18:36:36.524Z,1.90
2019-05-02T18:39:08.190Z,2.30
2019-05-02T18:41:44.720Z,2.50
2019-05-02T18:44:08.751Z,2.43
2019-05-02T18:46:41.556Z,1.77
2019-05-02T18:49:09.213Z,2.10
2019-05-02T18:51:38.541Z,1.97
2019-05-02T18:54:07.811Z,2.30
2019-05-02T18:56:42.749Z,2.87
2019-05-02T18:59:08.155Z,2.80
2019-05-02T19:01:37.327Z,2.33
2019-05-02T19:04:06.809Z,2.37
2019-05-02T19:06:36.376Z,2.83
2019-05-02T19:09:09.238Z,2.93
2019-05-02T19:11:38.583Z,2.30
2019-05-02T19:14:07.863Z,3.40
2019-05-02T19:16:37.079Z,3.17
2019-05-02T19:19:06.470Z,4.10
2019-05-02T19:21:39.165Z,3.97
2019-05-02T19:24:07.013Z,3.93
2019-05-02T19:26:36.321Z,4.00
2019-05-02T19:29:28.400Z,4.67
2019-05-02T19:31:58.263Z,4.30
2019-05-02T19:34:27.575Z,5.47
2019-05-02T19:36:58.139Z,6.40
2019-05-02T19:39:29.719Z,5.60
2019-05-02T19:41:58.957Z,6.20
2019-05-02T19:44:29.625Z,5.50
2019-05-02T19:46:59.279Z,5.80
2019-05-02T19:49:28.524Z,5.87
2019-05-02T19:51:58.493Z,5.20
2019-05-02T19:54:33.592Z,6.33
2019-05-02T19:56:58.886Z,6.57
2019-05-02T19:59:29.655Z,6.63
2019-05-02T20:02:02.531Z,5.90
2019-05-02T20:04:30.028Z,6.20
2019-05-02T20:06:59.313Z,6.93
2019-05-02T20:09:28.611Z,7.03
2019-05-02T20:11:57.945Z,5.20
2019-05-02T20:14:27.237Z,6.27
2019-05-02T20:16:58.678Z,6.20
2019-05-02T20:19:28.722Z,5.83
2019-05-02T20:22:06.873Z,6.40
2019-05-02T20:25:12.378Z,5.53
2019-05-02T20:27:42.148Z,5.80
2019-05-02T20:30:12.034Z,4.50
2019-05-02T20:32:42.761Z,6.20
2019-05-02T20:35:12.526Z,5.40
2019-05-02T20:37:42.039Z,5.53
2019-05-02T20:40:27.471Z,5.20
2019-05-02T20:42:56.757Z,6.93
2019-05-02T20:45:25.930Z,5.43
2019-05-02T20:47:55.400Z,5.03
2019-05-02T20:50:24.602Z,5.63
2019-05-02T20:52:53.809Z,5.30
2019-05-02T20:55:23.052Z,6.60
2019-05-02T20:57:52.741Z,6.43
2019-05-02T21:00:23.746Z,6.30
2019-05-02T21:02:53.321Z,7.13
2019-05-02T21:05:28.396Z,6.57
2019-05-02T21:08:28.879Z,6.83
2019-05-02T21:10:58.606Z,7.10
2019-05-02T21:13:27.874Z,6.30
2019-05-02T21:15:57.270Z,5.60
2019-05-02T21:18:26.549Z,5.73
2019-05-02T21:20:55.807Z,6.47
2019-05-02T21:23:24.972Z,5.60
2019-05-02T21:25:54.356Z,4.70
2019-05-02T21:28:23.535Z,5.20
2019-05-02T21:30:52.799Z,5.60
2019-05-02T21:33:35.698Z,6.70
2019-05-02T21:36:05.609Z,5.13
2019-05-02T21:38:34.770Z,4.60
2019-05-02T21:41:05.771Z,4.13
2019-05-02T21:43:34.957Z,3.83
2019-05-02T21:46:04.231Z,2.63
2019-05-02T21:48:34.094Z,4.00
2019-05-02T21:51:15.281Z,3.00
2019-05-02T21:53:59.804Z,3.17
2019-05-02T21:56:35.772Z,3.67
2019-05-02T21:59:05.237Z,2.20
2019-05-02T22:01:37.780Z,2.40
2019-05-02T22:04:07.029Z,1.73
2019-05-02T22:06:36.804Z,1.70
2019-05-02T22:09:07.826Z,1.73
2019-05-02T22:11:37.237Z,1.47
2019-05-02T22:14:06.989Z,1.20
2019-05-02T22:16:36.201Z,1.10
2019-05-02T22:19:05.931Z,1.93
2019-05-02T22:21:35.295Z,1.83
2019-05-02T22:24:11.149Z,1.50
2019-05-02T22:26:35.650Z,1.50
2019-05-02T22:29:05.025Z,2.93
2019-05-02T22:31:34.651Z,2.40
2019-05-02T22:34:03.941Z,2.67
2019-05-02T22:36:33.203Z,3.10
2019-05-02T22:39:22.163Z,2.80
2019-05-02T22:41:52.618Z,1.50
2019-05-02T22:44:22.027Z,2.43
2019-05-02T22:46:52.112Z,2.67
2019-05-02T22:49:22.566Z,2.77
2019-05-02T22:51:51.884Z,3.23
2019-05-02T22:54:27.692Z,2.03
2019-05-02T22:56:52.246Z,1.43
2019-05-02T22:59:23.709Z,1.50
2019-05-02T23:01:52.875Z,0.97
2019-05-02T23:04:23.630Z,1.40
2019-05-02T23:06:53.111Z,1.53
2019-05-02T23:09:22.412Z,2.20
2019-05-02T23:11:51.977Z,2.57
2019-05-02T23:14:22.157Z,1.77
2019-05-02T23:16:52.835Z,1.10
2019-05-02T23:19:23.068Z,2.10
2019-05-02T23:21:52.791Z,2.00
2019-05-02T23:24:39.388Z,1.40
2019-05-02T23:27:17.456Z,1.43
2019-05-02T23:29:46.809Z,1.10
2019-05-02T23:32:16.054Z,1.60
2019-05-02T23:34:45.233Z,1.10
2019-05-02T23:37:14.495Z,1.87
2019-05-02T23:39:43.661Z,2.80
2019-05-02T23:42:13.532Z,1.27
2019-05-02T23:44:42.843Z,1.50
2019-05-02T23:47:12.103Z,1.67
2019-05-02T23:49:42.687Z,1.33
2019-05-02T23:52:12.128Z,1.40
2019-05-02T23:54:50.029Z,1.53
2019-05-02T23:57:12.371Z,1.70
2019-05-02T23:59:42.403Z,1.40
